createdAt,value
2017-11-12T00:00:35.304Z,5.60
2017-11-12T00:01:41.296Z,4.15
2017-11-12T00:02:47.417Z,3.80
2017-11-12T00:03:53.536Z,4.35
2017-11-12T00:04:59.373Z,4.60
2017-11-12T00:06:05.456Z,3.62
2017-11-12T00:07:20.613Z,4.15
2017-11-12T00:08:26.663Z,4.40
2017-11-12T00:09:32.716Z,4.55
2017-11-12T00:10:38.802Z,4.30
2017-11-12T00:11:44.934Z,4.30
2017-11-12T00:12:51.035Z,4.07
2017-11-12T00:13:57.145Z,4.53
2017-11-12T00:15:03.192Z,4.78
2017-11-12T00:16:09.288Z,4.00
2017-11-12T00:17:15.444Z,4.25
2017-11-12T00:18:21.574Z,4.95
2017-11-12T00:19:27.610Z,4.45
2017-11-12T00:20:33.705Z,4.60
2017-11-12T00:21:39.805Z,4.40
2017-11-12T00:22:47.156Z,4.93
2017-11-12T00:23:53.263Z,4.65
2017-11-12T00:25:03.973Z,4.97
2017-11-12T00:26:13.070Z,5.18
2017-11-12T00:27:19.147Z,5.45
2017-11-12T00:28:25.233Z,4.70
2017-11-12T00:29:30.927Z,4.62
2017-11-12T00:30:37.085Z,4.40
2017-11-12T00:31:50.799Z,5.40
2017-11-12T00:32:56.863Z,5.10
2017-11-12T00:34:08.690Z,5.45
2017-11-12T00:35:14.762Z,4.68
2017-11-12T00:36:20.729Z,5.70
2017-11-12T00:37:26.698Z,5.78
2017-11-12T00:38:32.760Z,5.45
2017-11-12T00:39:41.009Z,5.37
2017-11-12T00:40:47.096Z,5.25
2017-11-12T00:41:53.009Z,6.00
2017-11-12T00:42:59.060Z,5.70
2017-11-12T00:44:05.130Z,6.40
2017-11-12T00:45:11.223Z,6.25
2017-11-12T00:46:17.301Z,5.90
2017-11-12T00:47:24.245Z,5.40
2017-11-12T00:48:30.296Z,6.43
2017-11-12T00:49:36.383Z,6.07
2017-11-12T00:50:42.469Z,5.72
2017-11-12T00:51:48.584Z,5.75
2017-11-12T00:52:54.653Z,7.18
2017-11-12T00:54:01.639Z,7.35
2017-11-12T00:55:07.719Z,6.55
2017-11-12T00:56:13.802Z,6.85
2017-11-12T00:57:19.939Z,7.00
2017-11-12T00:58:26.094Z,6.80
2017-11-12T00:59:32.165Z,6.12
2017-11-12T01:00:38.259Z,6.97
2017-11-12T01:01:44.367Z,7.22
2017-11-12T01:02:50.457Z,6.18
2017-11-12T01:03:57.470Z,6.60
2017-11-12T01:05:03.553Z,6.40
2017-11-12T01:06:09.663Z,6.55
2017-11-12T01:07:15.785Z,6.93
2017-11-12T01:08:21.827Z,6.95
2017-11-12T01:09:27.933Z,6.97
2017-11-12T01:10:33.996Z,6.65
2017-11-12T01:11:40.116Z,6.50
2017-11-12T01:12:45.908Z,7.45
2017-11-12T01:13:52.047Z,6.50
2017-11-12T01:14:58.160Z,6.97
2017-11-12T01:16:05.108Z,7.30
2017-11-12T01:17:11.223Z,7.05
2017-11-12T01:18:17.328Z,6.72
2017-11-12T01:19:23.426Z,6.80
2017-11-12T01:20:29.537Z,6.80
2017-11-12T01:21:35.651Z,6.62
2017-11-12T01:22:41.561Z,7.03
2017-11-12T01:23:47.631Z,6.72
2017-11-12T01:24:53.712Z,6.50
2017-11-12T01:25:59.788Z,7.80
2017-11-12T01:27:05.904Z,6.97
2017-11-12T01:28:11.996Z,6.57
2017-11-12T01:29:18.092Z,6.60
2017-11-12T01:30:24.191Z,6.15
2017-11-12T01:31:30.307Z,6.62
2017-11-12T01:32:36.406Z,5.90
2017-11-12T01:33:42.538Z,6.35
2017-11-12T01:34:48.651Z,6.80
2017-11-12T01:35:54.749Z,5.82
2017-11-12T01:37:00.449Z,6.25
2017-11-12T01:38:07.360Z,6.78
2017-11-12T01:39:13.433Z,6.15
2017-11-12T01:40:19.519Z,5.93
2017-11-12T01:41:25.615Z,6.45
2017-11-12T01:42:31.729Z,5.85
2017-11-12T01:43:38.731Z,6.28
2017-11-12T01:44:45.740Z,5.53
2017-11-12T01:45:51.615Z,5.95
2017-11-12T01:46:57.683Z,6.35
2017-11-12T01:48:03.774Z,6.78
2017-11-12T01:49:09.944Z,6.50
2017-11-12T01:50:16.014Z,6.12
2017-11-12T01:51:22.070Z,5.20
2017-11-12T01:52:28.158Z,6.55
2017-11-12T01:53:34.256Z,5.97
2017-11-12T01:54:40.403Z,6.18
2017-11-12T01:55:46.487Z,6.50
2017-11-12T01:56:52.567Z,5.25
2017-11-12T01:57:59.567Z,5.68
2017-11-12T01:59:05.303Z,5.93
2017-11-12T02:00:10.482Z,5.80
2017-11-12T02:01:16.359Z,5.60
2017-11-12T02:02:21.549Z,6.12
2017-11-12T02:03:27.087Z,6.22
2017-11-12T02:04:33.145Z,6.07
2017-11-12T02:05:38.752Z,5.82
2017-11-12T02:06:44.842Z,5.50
2017-11-12T02:09:02.975Z,5.30
2017-11-12T02:10:09.127Z,5.40
2017-11-12T02:11:15.193Z,6.15
2017-11-12T02:12:21.290Z,6.18
2017-11-12T02:13:27.014Z,5.40
2017-11-12T02:14:33.116Z,5.07
2017-11-12T02:15:39.209Z,5.10
2017-11-12T02:16:45.285Z,5.65
2017-11-12T02:17:51.191Z,5.22
2017-11-12T02:18:57.051Z,5.68
2017-11-12T02:20:02.461Z,5.57
2017-11-12T02:21:07.978Z,4.82
2017-11-12T02:22:13.437Z,5.32
2017-11-12T02:23:18.847Z,5.53
2017-11-12T02:24:24.724Z,4.82
2017-11-12T02:25:31.920Z,4.70
2017-11-12T02:26:37.281Z,5.40
2017-11-12T02:27:43.056Z,4.90
2017-11-12T02:28:48.502Z,5.00
2017-11-12T02:29:53.687Z,5.68
2017-11-12T02:30:59.032Z,4.82
2017-11-12T02:32:04.551Z,5.20
2017-11-12T02:33:09.916Z,4.78
2017-11-12T02:34:15.092Z,4.78
2017-11-12T02:35:20.836Z,4.95
2017-11-12T02:36:26.565Z,5.65
2017-11-12T02:37:31.992Z,5.62
2017-11-12T02:38:37.591Z,5.00
2017-11-12T02:39:43.300Z,4.85
2017-11-12T02:40:48.996Z,5.03
2017-11-12T02:41:54.741Z,5.15
2017-11-12T02:43:00.266Z,5.82
2017-11-12T02:44:06.000Z,5.70
2017-11-12T02:45:11.357Z,4.75
2017-11-12T02:46:17.102Z,5.65
2017-11-12T02:47:22.487Z,4.85
2017-11-12T02:48:27.884Z,5.25
2017-11-12T02:49:37.705Z,4.32
2017-11-12T02:50:43.424Z,5.57
2017-11-12T02:51:48.759Z,5.03
2017-11-12T02:52:54.166Z,5.12
2017-11-12T02:53:59.567Z,5.03
2017-11-12T02:55:15.084Z,4.45
2017-11-12T02:56:21.276Z,5.32
2017-11-12T02:57:27.389Z,4.97
2017-11-12T02:58:32.945Z,4.72
2017-11-12T02:59:41.099Z,4.68
2017-11-12T03:00:47.194Z,4.50
2017-11-12T03:01:52.934Z,4.85
2017-11-12T03:02:58.866Z,4.20
2017-11-12T03:04:04.971Z,4.43
2017-11-12T03:05:11.944Z,3.70
2017-11-12T03:06:18.756Z,4.70
2017-11-12T03:07:24.623Z,4.20
2017-11-12T03:08:30.647Z,4.50
2017-11-12T03:09:37.718Z,4.15
2017-11-12T03:10:43.799Z,4.93
2017-11-12T03:11:49.865Z,3.90
2017-11-12T03:12:56.449Z,4.90
2017-11-12T03:14:02.546Z,3.65
2017-11-12T03:15:08.201Z,5.53
2017-11-12T03:16:14.278Z,4.45
2017-11-12T03:17:19.997Z,4.18
2017-11-12T03:18:26.100Z,3.45
2017-11-12T03:19:32.180Z,4.28
2017-11-12T03:20:37.901Z,3.92
2017-11-12T03:21:43.990Z,4.07
2017-11-12T03:22:50.060Z,4.78
2017-11-12T03:23:55.803Z,4.12
2017-11-12T03:25:01.545Z,3.90
2017-11-12T03:26:06.892Z,4.20
2017-11-12T03:27:12.280Z,4.12
2017-11-12T03:28:17.445Z,3.80
2017-11-12T03:29:23.652Z,4.07
2017-11-12T03:30:29.357Z,4.55
2017-11-12T03:31:35.433Z,3.60
2017-11-12T03:32:41.532Z,3.58
2017-11-12T03:33:47.398Z,4.15
2017-11-12T03:34:53.492Z,4.32
2017-11-12T03:35:59.583Z,3.53
2017-11-12T03:37:05.654Z,4.37
2017-11-12T03:38:12.014Z,3.80
2017-11-12T03:39:18.108Z,4.15
2017-11-12T03:40:24.215Z,4.80
2017-11-12T03:41:30.296Z,3.85
2017-11-12T03:42:36.387Z,3.45
2017-11-12T03:43:42.459Z,3.92
2017-11-12T03:44:48.200Z,4.12
2017-11-12T03:45:54.329Z,3.72
2017-11-12T03:47:00.078Z,4.00
2017-11-12T03:48:06.168Z,3.75
2017-11-12T03:49:11.893Z,3.40
2017-11-12T03:50:17.299Z,4.05
2017-11-12T03:51:22.737Z,3.78
2017-11-12T03:52:28.575Z,3.95
2017-11-12T03:53:34.634Z,4.12
2017-11-12T03:54:40.334Z,4.30
2017-11-12T03:55:45.832Z,4.03
2017-11-12T03:56:51.550Z,3.90
2017-11-12T03:57:57.644Z,4.18
2017-11-12T03:59:03.761Z,3.80
2017-11-12T04:00:08.945Z,4.30
2017-11-12T04:01:14.794Z,4.10
2017-11-12T04:02:20.871Z,4.72
2017-11-12T04:03:26.575Z,4.15
2017-11-12T04:04:32.678Z,4.20
2017-11-12T04:05:38.870Z,3.70
2017-11-12T04:06:44.378Z,4.25
2017-11-12T04:07:50.137Z,4.45
2017-11-12T04:08:56.220Z,3.75
2017-11-12T04:10:02.350Z,3.90
2017-11-12T04:11:08.454Z,4.30
2017-11-12T04:12:14.482Z,3.75
2017-11-12T04:13:20.525Z,4.00
2017-11-12T04:14:26.591Z,4.37
2017-11-12T04:15:32.681Z,4.30
2017-11-12T04:16:38.765Z,3.72
2017-11-12T04:17:44.816Z,4.12
2017-11-12T04:18:50.540Z,4.47
2017-11-12T04:19:56.455Z,4.25
2017-11-12T04:21:02.523Z,3.65
2017-11-12T04:22:08.048Z,3.72
2017-11-12T04:23:15.011Z,3.83
2017-11-12T04:24:21.047Z,4.53
2017-11-12T04:25:27.138Z,4.20
2017-11-12T04:26:37.618Z,4.80
2017-11-12T04:27:43.496Z,5.07
2017-11-12T04:28:49.572Z,4.30
2017-11-12T04:29:55.674Z,4.43
2017-11-12T04:31:01.749Z,4.65
2017-11-12T04:32:07.809Z,4.82
2017-11-12T04:33:13.873Z,4.37
2017-11-12T04:34:19.919Z,4.40
2017-11-12T04:35:26.094Z,4.72
2017-11-12T04:36:33.053Z,3.42
2017-11-12T04:37:40.021Z,4.35
2017-11-12T04:38:46.093Z,4.87
2017-11-12T04:39:52.202Z,4.32
2017-11-12T04:40:58.326Z,4.72
2017-11-12T04:42:04.396Z,4.05
2017-11-12T04:43:10.489Z,4.00
2017-11-12T04:44:16.529Z,4.75
2017-11-12T04:45:22.652Z,3.87
2017-11-12T04:46:28.738Z,4.15
2017-11-12T04:47:37.170Z,4.87
2017-11-12T04:48:43.260Z,4.10
2017-11-12T04:49:49.381Z,4.03
2017-11-12T04:50:55.452Z,4.28
2017-11-12T04:52:03.466Z,4.10
2017-11-12T04:53:10.424Z,4.30
2017-11-12T04:54:16.500Z,3.78
2017-11-12T04:55:22.649Z,4.37
2017-11-12T04:56:28.845Z,4.25
2017-11-12T04:57:34.625Z,4.32
2017-11-12T04:58:40.671Z,4.28
2017-11-12T04:59:46.761Z,4.55
2017-11-12T05:00:57.649Z,4.30
2017-11-12T05:02:03.770Z,4.20
2017-11-12T05:03:10.369Z,4.15
2017-11-12T05:04:16.444Z,4.25
2017-11-12T05:05:21.876Z,3.62
2017-11-12T05:06:27.954Z,4.50
2017-11-12T05:07:34.137Z,3.80
2017-11-12T05:08:40.189Z,4.95
2017-11-12T05:09:46.329Z,3.65
2017-11-12T05:10:52.462Z,4.20
2017-11-12T05:11:59.435Z,3.75
2017-11-12T05:13:05.493Z,4.55
2017-11-12T05:14:12.502Z,4.40
2017-11-12T05:15:18.596Z,4.28
2017-11-12T05:16:25.608Z,3.97
2017-11-12T05:17:31.709Z,4.12
2017-11-12T05:18:37.787Z,3.58
2017-11-12T05:19:43.853Z,3.30
2017-11-12T05:20:49.994Z,3.80
2017-11-12T05:21:56.096Z,3.85
2017-11-12T05:23:02.169Z,4.32
2017-11-12T05:24:09.175Z,3.42
2017-11-12T05:25:15.259Z,4.53
2017-11-12T05:26:21.373Z,4.40
2017-11-12T05:27:27.455Z,4.10
2017-11-12T05:28:33.513Z,3.50
2017-11-12T05:30:52.263Z,3.80
2017-11-12T05:31:58.311Z,4.00
2017-11-12T05:33:13.248Z,4.40
2017-11-12T05:34:19.354Z,3.95
2017-11-12T05:35:25.469Z,4.47
2017-11-12T05:36:31.526Z,3.83
2017-11-12T05:37:37.575Z,3.60
2017-11-12T05:38:43.620Z,3.90
2017-11-12T05:39:49.683Z,4.53
2017-11-12T05:40:55.799Z,4.05
2017-11-12T05:42:01.879Z,4.30
2017-11-12T05:43:07.934Z,4.25
2017-11-12T05:44:14.014Z,4.05
2017-11-12T05:45:20.090Z,4.55
2017-11-12T05:46:26.196Z,5.35
2017-11-12T05:47:32.795Z,4.78
2017-11-12T05:48:39.722Z,5.37
2017-11-12T05:49:45.819Z,4.53
2017-11-12T05:50:51.895Z,6.18
2017-11-12T05:51:57.951Z,4.95
2017-11-12T05:53:04.007Z,5.12
2017-11-12T05:54:10.106Z,5.22
2017-11-12T05:55:16.184Z,5.80
2017-11-12T05:56:22.271Z,5.22
2017-11-12T05:57:28.359Z,4.75
2017-11-12T05:58:34.314Z,5.93
2017-11-12T05:59:40.413Z,5.45
2017-11-12T06:00:46.515Z,5.43
2017-11-12T06:01:52.571Z,6.12
2017-11-12T06:02:59.496Z,5.00
2017-11-12T06:04:05.375Z,4.68
2017-11-12T06:05:11.459Z,5.78
2017-11-12T06:06:17.358Z,5.30
2017-11-12T06:07:28.174Z,5.05
2017-11-12T06:08:34.299Z,6.00
2017-11-12T06:09:41.206Z,5.65
2017-11-12T06:10:47.303Z,5.10
2017-11-12T06:11:53.420Z,5.22
2017-11-12T06:12:59.506Z,5.53
2017-11-12T06:14:05.406Z,6.32
2017-11-12T06:15:10.578Z,5.00
2017-11-12T06:16:16.623Z,5.25
2017-11-12T06:17:22.367Z,4.80
2017-11-12T06:18:27.882Z,5.45
2017-11-12T06:19:33.792Z,4.62
2017-11-12T06:20:39.684Z,4.87
2017-11-12T06:21:47.061Z,4.45
2017-11-12T06:22:55.771Z,5.10
2017-11-12T06:24:02.110Z,4.60
2017-11-12T06:25:08.210Z,6.00
2017-11-12T06:26:14.118Z,5.68
2017-11-12T06:27:20.099Z,5.37
2017-11-12T06:28:26.005Z,6.30
2017-11-12T06:29:31.868Z,5.45
2017-11-12T06:30:37.961Z,6.10
2017-11-12T06:31:44.065Z,5.78
2017-11-12T06:32:49.276Z,5.25
2017-11-12T06:33:55.353Z,5.90
2017-11-12T06:35:01.407Z,6.10
2017-11-12T06:36:07.493Z,5.55
2017-11-12T06:37:13.625Z,5.90
2017-11-12T06:38:19.695Z,5.57
2017-11-12T06:39:25.863Z,5.57
2017-11-12T06:40:31.978Z,5.55
2017-11-12T06:41:38.110Z,6.15
2017-11-12T06:42:44.235Z,6.10
2017-11-12T06:43:50.322Z,5.50
2017-11-12T06:44:56.409Z,7.22
2017-11-12T06:46:13.688Z,6.05
2017-11-12T06:47:19.784Z,6.75
2017-11-12T06:48:25.908Z,6.85
2017-11-12T06:49:31.988Z,7.35
2017-11-12T06:50:38.103Z,6.28
2017-11-12T06:51:44.932Z,7.30
2017-11-12T06:52:52.140Z,6.00
2017-11-12T06:53:58.957Z,6.25
2017-11-12T06:55:05.822Z,5.68
2017-11-12T06:56:14.004Z,6.25
2017-11-12T06:57:21.820Z,6.30
2017-11-12T06:58:28.141Z,4.82
2017-11-12T06:59:34.255Z,5.70
2017-11-12T07:00:41.022Z,6.20
2017-11-12T07:01:49.038Z,4.65
2017-11-12T07:02:56.430Z,5.05
2017-11-12T07:04:03.315Z,5.12
2017-11-12T07:05:09.431Z,5.70
2017-11-12T07:06:15.493Z,5.10
2017-11-12T07:07:21.627Z,6.15
2017-11-12T07:08:27.694Z,4.97
2017-11-12T07:09:33.755Z,5.32
2017-11-12T07:10:39.887Z,5.62
2017-11-12T07:11:46.010Z,5.35
2017-11-12T07:12:51.758Z,5.25
2017-11-12T07:13:57.831Z,4.85
2017-11-12T07:15:03.563Z,5.05
2017-11-12T07:16:11.866Z,5.20
2017-11-12T07:17:17.835Z,5.10
2017-11-12T07:18:24.326Z,4.90
2017-11-12T07:19:30.589Z,5.55
2017-11-12T07:20:37.446Z,5.57
2017-11-12T07:21:45.080Z,6.75
2017-11-12T07:22:50.574Z,4.95
2017-11-12T07:23:56.669Z,4.78
2017-11-12T07:25:03.327Z,4.87
2017-11-12T07:26:09.418Z,5.25
2017-11-12T07:27:15.555Z,5.47
2017-11-12T07:28:21.818Z,4.30
2017-11-12T07:29:29.962Z,5.43
2017-11-12T07:30:36.080Z,4.50
2017-11-12T07:31:42.650Z,5.03
2017-11-12T07:32:49.031Z,4.87
2017-11-12T07:33:55.168Z,4.68
2017-11-12T07:35:03.621Z,4.93
2017-11-12T07:36:10.099Z,5.80
2017-11-12T07:37:18.330Z,4.80
2017-11-12T07:38:24.580Z,4.85
2017-11-12T07:39:30.822Z,5.22
2017-11-12T07:40:37.473Z,4.80
2017-11-12T07:41:43.675Z,4.72
2017-11-12T07:42:49.603Z,4.75
2017-11-12T07:43:56.020Z,4.87
2017-11-12T07:45:02.282Z,5.10
2017-11-12T07:46:08.540Z,4.70
2017-11-12T07:47:14.722Z,5.68
2017-11-12T07:48:21.031Z,5.10
2017-11-12T07:49:27.244Z,5.22
2017-11-12T07:50:33.459Z,4.70
2017-11-12T07:51:39.945Z,5.90
2017-11-12T07:52:46.283Z,5.25
2017-11-12T07:53:52.579Z,4.87
2017-11-12T07:55:00.515Z,5.40
2017-11-12T07:56:06.588Z,4.85
2017-11-12T07:57:12.675Z,5.57
2017-11-12T07:58:18.876Z,5.43
2017-11-12T07:59:25.936Z,6.50
2017-11-12T08:00:32.662Z,5.37
2017-11-12T08:01:38.796Z,5.37
2017-11-12T08:02:44.802Z,5.57
2017-11-12T08:03:50.951Z,5.30
2017-11-12T08:04:57.856Z,5.62
2017-11-12T08:06:04.758Z,4.55
2017-11-12T08:07:10.903Z,5.85
2017-11-12T08:08:28.105Z,5.43
2017-11-12T08:09:34.602Z,6.68
2017-11-12T08:10:40.808Z,6.68
2017-11-12T08:11:47.163Z,5.35
2017-11-12T08:12:53.116Z,5.72
2017-11-12T08:13:59.364Z,6.35
2017-11-12T08:15:10.680Z,6.87
2017-11-12T08:16:17.023Z,6.25
2017-11-12T08:17:23.126Z,6.68
2017-11-12T08:18:29.310Z,7.30
2017-11-12T08:19:35.464Z,7.22
2017-11-12T08:20:41.675Z,7.78
2017-11-12T08:21:47.936Z,7.20
2017-11-12T08:22:54.107Z,9.20
2017-11-12T08:24:00.649Z,8.85
2017-11-12T08:25:06.751Z,7.57
2017-11-12T08:26:12.956Z,9.25
2017-11-12T08:27:19.151Z,8.00
2017-11-12T08:28:24.886Z,8.10
2017-11-12T08:29:31.227Z,8.52
2017-11-12T08:30:36.741Z,8.18
2017-11-12T08:31:43.226Z,8.80
2017-11-12T08:32:49.483Z,8.75
2017-11-12T08:33:56.004Z,8.20
2017-11-12T08:35:01.764Z,9.02
2017-11-12T08:36:11.710Z,8.50
2017-11-12T08:37:18.056Z,7.60
2017-11-12T08:38:24.226Z,8.05
2017-11-12T08:39:29.783Z,7.85
2017-11-12T08:40:35.534Z,8.05
2017-11-12T08:41:41.400Z,7.43
2017-11-12T08:42:47.453Z,7.43
2017-11-12T08:43:53.167Z,7.70
2017-11-12T08:44:59.206Z,7.35
2017-11-12T08:46:04.338Z,6.93
2017-11-12T08:47:09.992Z,7.25
2017-11-12T08:48:15.855Z,7.65
2017-11-12T08:49:22.019Z,6.47
2017-11-12T08:50:28.416Z,6.85
2017-11-12T08:51:33.664Z,7.68
2017-11-12T08:52:39.390Z,6.80
2017-11-12T08:53:45.299Z,7.35
2017-11-12T08:54:51.050Z,6.57
2017-11-12T08:55:57.789Z,5.70
2017-11-12T08:57:04.316Z,6.03
2017-11-12T08:58:10.349Z,6.35
2017-11-12T08:59:16.107Z,6.65
2017-11-12T09:00:24.708Z,6.22
2017-11-12T09:01:29.841Z,6.40
2017-11-12T09:02:36.543Z,6.43
2017-11-12T09:03:42.310Z,6.12
2017-11-12T09:04:48.053Z,6.47
2017-11-12T09:05:53.730Z,5.32
2017-11-12T09:06:59.750Z,5.30
2017-11-12T09:08:05.794Z,6.25
2017-11-12T09:09:11.877Z,6.45
2017-11-12T09:10:18.032Z,6.93
2017-11-12T09:11:24.120Z,5.45
2017-11-12T09:12:30.274Z,5.68
2017-11-12T09:13:36.344Z,5.32
2017-11-12T09:14:42.092Z,5.80
2017-11-12T09:15:47.808Z,5.47
2017-11-12T09:17:01.271Z,5.80
2017-11-12T09:18:12.506Z,5.97
2017-11-12T09:19:18.569Z,6.55
2017-11-12T09:20:25.049Z,6.03
2017-11-12T09:21:31.161Z,5.57
2017-11-12T09:22:37.879Z,5.50
2017-11-12T09:23:44.322Z,5.03
2017-11-12T09:24:50.416Z,5.57
2017-11-12T09:25:56.467Z,5.07
2017-11-12T09:27:02.534Z,5.85
2017-11-12T09:28:08.197Z,5.03
2017-11-12T09:29:14.250Z,5.65
2017-11-12T09:30:20.319Z,6.03
2017-11-12T09:31:26.366Z,5.25
2017-11-12T09:32:32.064Z,4.93
2017-11-12T09:33:38.098Z,5.62
2017-11-12T09:34:44.278Z,5.40
2017-11-12T09:35:51.030Z,4.80
2017-11-12T09:36:57.085Z,5.68
2017-11-12T09:38:02.787Z,4.60
2017-11-12T09:39:08.859Z,5.30
2017-11-12T09:40:14.959Z,5.07
2017-11-12T09:41:21.063Z,5.75
2017-11-12T09:42:27.202Z,4.90
2017-11-12T09:43:36.232Z,5.65
2017-11-12T09:44:42.331Z,4.78
2017-11-12T09:45:48.400Z,4.87
2017-11-12T09:46:54.479Z,4.82
2017-11-12T09:48:00.533Z,5.75
2017-11-12T09:49:06.600Z,5.10
2017-11-12T09:50:12.693Z,5.72
2017-11-12T09:51:18.763Z,6.10
2017-11-12T09:52:24.836Z,5.45
2017-11-12T09:53:30.895Z,5.20
2017-11-12T09:54:36.999Z,5.85
2017-11-12T09:55:43.079Z,5.65
2017-11-12T09:56:49.200Z,6.20
2017-11-12T09:57:55.325Z,5.60
2017-11-12T09:59:01.422Z,5.43
2017-11-12T10:00:06.828Z,5.45
2017-11-12T10:01:12.759Z,4.97
2017-11-12T10:02:19.799Z,5.30
2017-11-12T10:03:25.928Z,4.70
2017-11-12T10:04:32.036Z,4.87
2017-11-12T10:05:38.232Z,4.97
2017-11-12T10:06:44.351Z,4.70
2017-11-12T10:07:51.323Z,4.43
2017-11-12T10:08:57.430Z,4.68
2017-11-12T10:10:03.547Z,4.53
2017-11-12T10:11:09.652Z,5.32
2017-11-12T10:12:15.795Z,5.20
2017-11-12T10:13:22.059Z,4.68
2017-11-12T10:14:28.175Z,5.00
2017-11-12T10:15:34.275Z,4.62
2017-11-12T10:16:43.183Z,4.80
2017-11-12T10:17:49.285Z,4.93
2017-11-12T10:18:55.416Z,4.45
2017-11-12T10:20:01.571Z,4.60
2017-11-12T10:21:07.674Z,4.18
2017-11-12T10:22:13.764Z,5.03
2017-11-12T10:23:19.689Z,4.20
2017-11-12T10:24:25.804Z,4.40
2017-11-12T10:25:32.004Z,3.83
2017-11-12T10:26:38.103Z,4.72
2017-11-12T10:27:44.226Z,4.95
2017-11-12T10:28:50.326Z,4.25
2017-11-12T10:29:56.425Z,4.55
2017-11-12T10:31:02.684Z,4.28
2017-11-12T10:32:08.782Z,4.87
2017-11-12T10:33:14.549Z,4.43
2017-11-12T10:34:20.663Z,4.37
2017-11-12T10:35:26.777Z,4.03
2017-11-12T10:36:32.896Z,4.25
2017-11-12T10:37:39.021Z,3.80
2017-11-12T10:38:45.117Z,4.30
2017-11-12T10:39:51.218Z,4.15
2017-11-12T10:40:57.330Z,4.10
2017-11-12T10:42:03.253Z,4.60
2017-11-12T10:43:09.374Z,4.87
2017-11-12T10:44:15.452Z,4.30
2017-11-12T10:45:21.524Z,4.32
2017-11-12T10:46:30.597Z,4.12
2017-11-12T10:47:38.510Z,4.50
2017-11-12T10:48:44.578Z,4.45
2017-11-12T10:49:51.510Z,4.05
2017-11-12T10:50:57.643Z,4.00
2017-11-12T10:52:03.783Z,4.20
2017-11-12T10:53:09.905Z,3.90
2017-11-12T10:54:15.690Z,4.28
2017-11-12T10:55:22.075Z,4.90
2017-11-12T10:56:29.894Z,4.72
2017-11-12T10:57:39.847Z,5.15
2017-11-12T10:58:46.085Z,4.00
2017-11-12T10:59:52.171Z,5.28
2017-11-12T11:00:58.334Z,4.95
2017-11-12T11:02:04.451Z,5.00
2017-11-12T11:03:10.584Z,5.03
2017-11-12T11:04:16.718Z,4.65
2017-11-12T11:05:22.815Z,4.80
2017-11-12T11:06:29.000Z,4.45
2017-11-12T11:07:35.133Z,4.60
2017-11-12T11:08:41.043Z,5.00
2017-11-12T11:09:47.155Z,4.93
2017-11-12T11:10:53.290Z,5.15
2017-11-12T11:11:59.459Z,4.50
2017-11-12T11:13:05.591Z,5.22
2017-11-12T11:14:11.705Z,4.62
2017-11-12T11:15:17.839Z,5.22
2017-11-12T11:16:23.991Z,4.80
2017-11-12T11:17:33.775Z,5.45
2017-11-12T11:18:39.888Z,5.32
2017-11-12T11:19:46.047Z,5.28
2017-11-12T11:20:53.111Z,5.25
2017-11-12T11:21:59.225Z,5.37
2017-11-12T11:23:05.025Z,4.75
2017-11-12T11:24:11.113Z,4.70
2017-11-12T11:25:17.233Z,5.40
2017-11-12T11:26:23.380Z,5.18
2017-11-12T11:27:29.589Z,5.37
2017-11-12T11:28:36.639Z,5.10
2017-11-12T11:29:43.060Z,4.78
2017-11-12T11:30:49.189Z,5.10
2017-11-12T11:31:55.321Z,5.53
2017-11-12T11:33:01.473Z,4.53
2017-11-12T11:34:07.837Z,4.45
2017-11-12T11:35:13.949Z,4.90
2017-11-12T11:36:20.101Z,4.72
2017-11-12T11:37:26.241Z,4.80
2017-11-12T11:38:32.351Z,5.10
2017-11-12T11:39:38.487Z,5.03
2017-11-12T11:40:44.666Z,5.85
2017-11-12T11:41:50.792Z,5.25
2017-11-12T11:42:56.573Z,5.60
2017-11-12T11:44:02.754Z,5.95
2017-11-12T11:45:13.769Z,6.25
2017-11-12T11:46:19.915Z,6.47
2017-11-12T11:47:26.066Z,5.90
2017-11-12T11:48:32.198Z,6.37
2017-11-12T11:49:38.326Z,6.00
2017-11-12T11:50:44.464Z,6.90
2017-11-12T11:51:50.575Z,5.40
2017-11-12T11:52:56.699Z,6.32
2017-11-12T11:54:03.312Z,6.50
2017-11-12T11:55:09.045Z,5.97
2017-11-12T11:56:14.825Z,5.20
2017-11-12T11:57:20.990Z,6.10
2017-11-12T11:58:27.115Z,5.93
2017-11-12T11:59:33.386Z,5.95
2017-11-12T12:00:38.787Z,5.40
2017-11-12T12:01:44.763Z,5.57
2017-11-12T12:02:50.905Z,5.18
2017-11-12T12:03:56.665Z,5.20
2017-11-12T12:05:02.782Z,4.62
2017-11-12T12:06:08.918Z,4.55
2017-11-12T12:07:15.287Z,4.97
2017-11-12T12:08:21.438Z,4.30
2017-11-12T12:09:28.311Z,4.30
2017-11-12T12:10:35.342Z,4.60
2017-11-12T12:11:41.517Z,4.18
2017-11-12T12:12:47.643Z,4.72
2017-11-12T12:13:53.779Z,3.95
2017-11-12T12:14:59.874Z,3.60
2017-11-12T12:16:06.006Z,3.90
2017-11-12T12:17:12.171Z,3.25
2017-11-12T12:18:18.326Z,3.90
2017-11-12T12:19:24.747Z,3.55
2017-11-12T12:20:30.883Z,3.75
2017-11-12T12:21:37.053Z,2.60
2017-11-12T12:22:43.176Z,3.03
2017-11-12T12:23:49.324Z,3.55
2017-11-12T12:24:55.473Z,3.20
2017-11-12T12:26:01.643Z,4.40
2017-11-12T12:27:07.759Z,3.40
2017-11-12T12:28:14.536Z,3.60
2017-11-12T12:29:21.288Z,3.35
2017-11-12T12:30:27.426Z,3.58
2017-11-12T12:31:33.591Z,3.47
2017-11-12T12:32:39.720Z,3.80
2017-11-12T12:33:45.871Z,3.50
2017-11-12T12:34:51.800Z,3.58
2017-11-12T12:35:57.930Z,4.15
2017-11-12T12:37:04.076Z,3.72
2017-11-12T12:38:11.292Z,4.55
2017-11-12T12:39:17.243Z,4.05
2017-11-12T12:40:23.357Z,4.37
2017-11-12T12:41:29.500Z,4.35
2017-11-12T12:42:35.611Z,4.22
2017-11-12T12:43:41.762Z,4.35
2017-11-12T12:44:48.176Z,3.83
2017-11-12T12:45:54.158Z,3.72
2017-11-12T12:47:00.277Z,4.15
2017-11-12T12:48:06.401Z,4.50
2017-11-12T12:49:12.337Z,4.40
2017-11-12T12:50:18.440Z,3.50
2017-11-12T12:51:24.564Z,4.40
2017-11-12T12:52:30.798Z,4.53
2017-11-12T12:53:36.934Z,4.37
2017-11-12T12:54:43.045Z,4.45
2017-11-12T12:55:49.185Z,4.28
2017-11-12T12:56:55.326Z,4.80
2017-11-12T12:58:01.409Z,4.43
2017-11-12T12:59:07.515Z,4.50
2017-11-12T13:00:13.692Z,4.75
2017-11-12T13:01:19.861Z,4.25
2017-11-12T13:02:26.009Z,5.05
2017-11-12T13:03:31.763Z,4.12
2017-11-12T13:04:37.872Z,4.07
2017-11-12T13:05:43.630Z,4.45
2017-11-12T13:06:49.777Z,4.45
2017-11-12T13:07:55.518Z,4.65
2017-11-12T13:09:01.665Z,4.53
2017-11-12T13:10:08.529Z,4.45
2017-11-12T13:11:15.578Z,4.25
2017-11-12T13:12:21.742Z,4.60
2017-11-12T13:13:27.864Z,4.20
2017-11-12T13:14:33.810Z,4.60
2017-11-12T13:15:39.948Z,4.30
2017-11-12T13:16:45.961Z,4.43
2017-11-12T13:17:52.077Z,4.60
2017-11-12T13:18:57.642Z,4.62
2017-11-12T13:20:03.391Z,5.10
2017-11-12T13:21:09.526Z,5.10
2017-11-12T13:22:16.496Z,5.30
2017-11-12T13:23:22.631Z,5.57
2017-11-12T13:24:28.387Z,5.07
2017-11-12T13:25:34.478Z,4.72
2017-11-12T13:26:40.113Z,4.55
2017-11-12T13:27:46.252Z,5.25
2017-11-12T13:28:52.293Z,4.93
2017-11-12T13:29:59.093Z,5.55
2017-11-12T13:31:05.225Z,5.25
2017-11-12T13:32:10.879Z,5.45
2017-11-12T13:33:17.539Z,5.00
2017-11-12T13:34:23.756Z,4.80
2017-11-12T13:35:29.301Z,5.45
2017-11-12T13:36:35.210Z,5.35
2017-11-12T13:37:41.333Z,4.90
2017-11-12T13:38:47.126Z,5.30
2017-11-12T13:39:53.199Z,5.10
2017-11-12T13:41:00.556Z,5.18
2017-11-12T13:42:06.330Z,5.72
2017-11-12T13:43:12.421Z,6.37
2017-11-12T13:44:18.550Z,6.12
2017-11-12T13:45:24.094Z,5.85
2017-11-12T13:46:30.256Z,6.07
2017-11-12T13:47:36.432Z,5.22
2017-11-12T13:48:42.574Z,5.28
2017-11-12T13:49:48.714Z,5.45
2017-11-12T13:50:54.847Z,5.55
2017-11-12T13:52:00.956Z,5.32
2017-11-12T13:53:07.116Z,5.20
2017-11-12T13:54:13.044Z,5.68
2017-11-12T13:55:19.174Z,5.07
2017-11-12T13:56:25.340Z,6.40
2017-11-12T13:57:35.457Z,5.55
2017-11-12T13:58:41.594Z,5.10
2017-11-12T13:59:47.721Z,5.93
2017-11-12T14:00:54.768Z,5.00
2017-11-12T14:02:00.927Z,5.10
2017-11-12T14:03:07.185Z,5.20
2017-11-12T14:04:13.318Z,4.97
2017-11-12T14:05:19.571Z,5.78
2017-11-12T14:06:25.715Z,5.50
2017-11-12T14:07:31.518Z,5.30
2017-11-12T14:08:37.672Z,5.65
2017-11-12T14:09:43.825Z,4.95
2017-11-12T14:10:51.075Z,5.25
2017-11-12T14:11:57.202Z,5.90
2017-11-12T14:13:03.225Z,5.35
2017-11-12T14:14:09.362Z,6.20
2017-11-12T14:15:15.500Z,5.57
2017-11-12T14:16:21.701Z,5.80
2017-11-12T14:17:27.875Z,5.25
2017-11-12T14:18:34.669Z,5.68
2017-11-12T14:19:40.944Z,6.20
2017-11-12T14:20:47.001Z,5.07
2017-11-12T14:21:53.228Z,5.45
2017-11-12T14:22:59.507Z,6.07
2017-11-12T14:24:05.737Z,5.50
2017-11-12T14:25:12.066Z,5.75
2017-11-12T14:26:19.725Z,6.30
2017-11-12T14:27:29.166Z,6.00
2017-11-12T14:28:35.347Z,5.72
2017-11-12T14:29:41.509Z,6.30
2017-11-12T14:30:47.847Z,5.35
2017-11-12T14:31:53.993Z,5.80
2017-11-12T14:33:01.958Z,6.28
2017-11-12T14:34:08.489Z,5.90
2017-11-12T14:35:14.852Z,5.03
2017-11-12T14:36:21.740Z,5.25
2017-11-12T14:37:28.556Z,5.18
2017-11-12T14:38:35.471Z,4.97
2017-11-12T14:39:41.677Z,5.30
2017-11-12T14:40:49.094Z,5.00
2017-11-12T14:41:55.240Z,4.97
2017-11-12T14:43:01.376Z,4.70
2017-11-12T14:44:07.516Z,5.15
2017-11-12T14:45:13.647Z,4.95